Jarratt, VA (23867)

12:19 PM EDT on March 23, 2017 (GMT -0400)
purdy | | Change Station

Elev 200 ft 36.79 °N, 77.57 °W | Updated 4 seconds ago

Clear
Clear
44.3 °F
Feels Like 44 °F
N
0.0
Wind Variable Wind from ESE
Gusts 0.0 mph

Today
High -- | Low -- °F
--% Chance of Precip.
Yesterday
High -- | Low -- °F
Precip. -- in
Pressure 30.65 in
Visibility 10.0 miles
Clouds Clear
Windchill 44 °F
Dew Point 15 °F
Humidity 30%
Rainfall 0.00 in
Snow Depth Not available.
7:08 AM 7:24 PM
Waning Crescent, 22% visible
METAR KEMV 231615Z AUTO 34005KT 10SM CLR 06/M10 A3065 RMK AO2
Pressure 30.65 in
Visibility 10.0 miles
Clouds Clear
Windchill 44 °F
Dew Point 15 °F
Humidity 30%
Rainfall 0.00 in
Snow Depth Not available.
7:08 AM 7:24 PM
Waning Crescent, 22% visible
METAR KEMV 231615Z AUTO 34005KT 10SM CLR 06/M10 A3065 RMK AO2

Get Severe Weather Alerts

Thanks for signing up!

Be on the lookout for a verification email in your inbox.

You'll start receiving the daily forecast at 8 AM.

×

10-Day Weather Forecast

Almanac

Astronomy

Mar. 23, 2017 Rise Set
Actual Time
Civil Twilight
Nautical Twilight
Astronomical Twilight
Moon
Length of Visible Light
Length of Day
Tomorrow will be .
, % of the Moon is Illuminated

Today's Extremes

State Highs State Lows

Community

WunderPhotos

Upload Photos

1,962,540 photos uploaded!

WunderBlog® & News

Nearby

Air Quality

  Air Quality AQ Index Pollutant
Not available.

Snow Depth

Station Depth Elevation

Earthquake Activity

City Distance Mag. Time & Date
Minimum magnitude displayed is 2.5.

Earthquake Activity

City Distance Mag. Time & Date
Minimum magnitude displayed is 2.5.

Coastal Water Temperatures

Place Temperature

Stations

Nearby Weather Stations

Station Location Temp. Windchill Dew Point Humidity Wind Precip. Elev Updated Type
                   

Watches & Warnings

There are currently no watches in effect.